sensor_id;sensor_type;location;lat;lon;timestamp;P1;P2;P0
28026;PMS5003;15344;52.342;-1.290;2023-05-13T00:02:12;17;14;
28026;PMS5003;15344;52.342;-1.290;2023-05-13T00:04:38;18;15;
28026;PMS5003;15344;52.342;-1.290;2023-05-13T00:07:03;21;16;
28026;PMS5003;15344;52.342;-1.290;2023-05-13T00:09:29;17;17;
28026;PMS5003;15344;52.342;-1.290;2023-05-13T00:11:55;20;20;
28026;PMS5003;15344;52.342;-1.290;2023-05-13T00:14:19;23;21;
28026;PMS5003;15344;52.342;-1.290;2023-05-13T00:16:45;30;24;
28026;PMS5003;15344;52.342;-1.290;2023-05-13T00:19:10;28;22;
28026;PMS5003;15344;52.342;-1.290;2023-05-13T00:21:36;23;21;
28026;PMS5003;15344;52.342;-1.290;2023-05-13T00:24:02;25;21;
28026;PMS5003;15344;52.342;-1.290;2023-05-13T00:26:27;23;21;
28026;PMS5003;15344;52.342;-1.290;2023-05-13T00:28:53;21;21;
28026;PMS5003;15344;52.342;-1.290;2023-05-13T00:31:18;26;23;
28026;PMS5003;15344;52.342;-1.290;2023-05-13T00:33:44;23;20;
28026;PMS5003;15344;52.342;-1.290;2023-05-13T00:36:10;25;22;
28026;PMS5003;15344;52.342;-1.290;2023-05-13T00:38:35;26;22;
28026;PMS5003;15344;52.342;-1.290;2023-05-13T00:41:01;21;18;
28026;PMS5003;15344;52.342;-1.290;2023-05-13T00:43:26;22;22;
28026;PMS5003;15344;52.342;-1.290;2023-05-13T00:45:51;26;21;
28026;PMS5003;15344;52.342;-1.290;2023-05-13T00:48:17;23;22;
28026;PMS5003;15344;52.342;-1.290;2023-05-13T00:50:43;32;28;
28026;PMS5003;15344;52.342;-1.290;2023-05-13T00:53:08;27;23;
28026;PMS5003;15344;52.342;-1.290;2023-05-13T00:55:33;28;22;
28026;PMS5003;15344;52.342;-1.290;2023-05-13T00:57:58;29;24;
28026;PMS5003;15344;52.342;-1.290;2023-05-13T01:00:23;23;19;
28026;PMS5003;15344;52.342;-1.290;2023-05-13T01:02:51;21;19;
28026;PMS5003;15344;52.342;-1.290;2023-05-13T01:05:17;22;18;
28026;PMS5003;15344;52.342;-1.290;2023-05-13T01:07:42;22;20;
28026;PMS5003;15344;52.342;-1.290;2023-05-13T01:10:07;26;20;
28026;PMS5003;15344;52.342;-1.290;2023-05-13T01:12:32;28;23;
28026;PMS5003;15344;52.342;-1.290;2023-05-13T01:14:58;15;15;
28026;PMS5003;15344;52.342;-1.290;2023-05-13T01:17:23;21;17;
28026;PMS5003;15344;52.342;-1.290;2023-05-13T01:19:51;24;21;
28026;PMS5003;15344;52.342;-1.290;2023-05-13T01:22:14;19;19;
28026;PMS5003;15344;52.342;-1.290;2023-05-13T01:24:39;25;22;
28026;PMS5003;15344;52.342;-1.290;2023-05-13T01:27:04;17;16;
28026;PMS5003;15344;52.342;-1.290;2023-05-13T01:29:30;23;22;
28026;PMS5003;15344;52.342;-1.290;2023-05-13T01:31:55;20;19;
28026;PMS5003;15344;52.342;-1.290;2023-05-13T01:34:21;31;24;
28026;PMS5003;15344;52.342;-1.290;2023-05-13T01:36:46;22;17;
28026;PMS5003;15344;52.342;-1.290;2023-05-13T01:39:12;24;20;
28026;PMS5003;15344;52.342;-1.290;2023-05-13T01:41:37;22;21;
28026;PMS5003;15344;52.342;-1.290;2023-05-13T01:44:02;28;27;
28026;PMS5003;15344;52.342;-1.290;2023-05-13T01:46:28;24;22;
28026;PMS5003;15344;52.342;-1.290;2023-05-13T01:48:53;23;20;
28026;PMS5003;15344;52.342;-1.290;2023-05-13T01:51:19;27;23;
28026;PMS5003;15344;52.342;-1.290;2023-05-13T01:53:44;24;19;
28026;PMS5003;15344;52.342;-1.290;2023-05-13T01:56:10;21;20;
28026;PMS5003;15344;52.342;-1.290;2023-05-13T01:58:35;21;17;
28026;PMS5003;15344;52.342;-1.290;2023-05-13T02:01:01;20;17;
28026;PMS5003;15344;52.342;-1.290;2023-05-13T02:03:26;20;20;
28026;PMS5003;15344;52.342;-1.290;2023-05-13T02:05:51;20;17;
28026;PMS5003;15344;52.342;-1.290;2023-05-13T02:08:17;19;19;
28026;PMS5003;15344;52.342;-1.290;2023-05-13T02:10:42;20;17;
28026;PMS5003;15344;52.342;-1.290;2023-05-13T02:13:10;21;19;
28026;PMS5003;15344;52.342;-1.290;2023-05-13T02:15:33;16;13;
28026;PMS5003;15344;52.342;-1.290;2023-05-13T02:17:59;18;15;
28026;PMS5003;15344;52.342;-1.290;2023-05-13T02:20:24;15;14;
28026;PMS5003;15344;52.342;-1.290;2023-05-13T02:22:50;16;16;
28026;PMS5003;15344;52.342;-1.290;2023-05-13T02:25:15;15;12;
28026;PMS5003;15344;52.342;-1.290;2023-05-13T02:27:41;21;19;
28026;PMS5003;15344;52.342;-1.290;2023-05-13T02:30:07;20;20;
28026;PMS5003;15344;52.342;-1.290;2023-05-13T02:32:32;15;15;
28026;PMS5003;15344;52.342;-1.290;2023-05-13T02:34:57;16;14;
28026;PMS5003;15344;52.342;-1.290;2023-05-13T02:37:22;14;11;
28026;PMS5003;15344;52.342;-1.290;2023-05-13T02:39:48;16;15;
28026;PMS5003;15344;52.342;-1.290;2023-05-13T02:42:13;14;14;
28026;PMS5003;15344;52.342;-1.290;2023-05-13T02:44:38;18;17;
28026;PMS5003;15344;52.342;-1.290;2023-05-13T02:47:04;20;17;
28026;PMS5003;15344;52.342;-1.290;2023-05-13T02:49:29;15;13;
28026;PMS5003;15344;52.342;-1.290;2023-05-13T02:51:55;12;12;
28026;PMS5003;15344;52.342;-1.290;2023-05-13T02:54:21;13;11;
28026;PMS5003;15344;52.342;-1.290;2023-05-13T02:56:46;14;13;
28026;PMS5003;15344;52.342;-1.290;2023-05-13T02:59:11;18;13;
28026;PMS5003;15344;52.342;-1.290;2023-05-13T03:01:37;18;12;
28026;PMS5003;15344;52.342;-1.290;2023-05-13T03:04:02;17;14;
28026;PMS5003;15344;52.342;-1.290;2023-05-13T03:06:27;14;11;
28026;PMS5003;15344;52.342;-1.290;2023-05-13T03:08:53;13;13;
28026;PMS5003;15344;52.342;-1.290;2023-05-13T03:11:19;12;11;
28026;PMS5003;15344;52.342;-1.290;2023-05-13T03:13:44;11;11;
28026;PMS5003;15344;52.342;-1.290;2023-05-13T03:16:10;14;11;
28026;PMS5003;15344;52.342;-1.290;2023-05-13T03:18:35;12;9;
28026;PMS5003;15344;52.342;-1.290;2023-05-13T03:21:00;14;13;
28026;PMS5003;15344;52.342;-1.290;2023-05-13T03:23:26;13;11;
28026;PMS5003;15344;52.342;-1.290;2023-05-13T03:25:51;11;11;
28026;PMS5003;15344;52.342;-1.290;2023-05-13T03:28:16;13;11;
28026;PMS5003;15344;52.342;-1.290;2023-05-13T03:30:42;19;14;
28026;PMS5003;15344;52.342;-1.290;2023-05-13T03:33:07;17;17;
28026;PMS5003;15344;52.342;-1.290;2023-05-13T03:35:33;23;17;
28026;PMS5003;15344;52.342;-1.290;2023-05-13T03:37:58;24;17;
28026;PMS5003;15344;52.342;-1.290;2023-05-13T03:40:24;27;21;
28026;PMS5003;15344;52.342;-1.290;2023-05-13T03:42:49;18;17;
28026;PMS5003;15344;52.342;-1.290;2023-05-13T03:45:15;27;22;
28026;PMS5003;15344;52.342;-1.290;2023-05-13T03:47:40;26;24;
28026;PMS5003;15344;52.342;-1.290;2023-05-13T03:50:06;20;20;
28026;PMS5003;15344;52.342;-1.290;2023-05-13T03:52:31;19;18;
28026;PMS5003;15344;52.342;-1.290;2023-05-13T03:54:57;27;24;
28026;PMS5003;15344;52.342;-1.290;2023-05-13T03:57:22;22;18;
28026;PMS5003;15344;52.342;-1.290;2023-05-13T03:59:48;27;23;
28026;PMS5003;15344;52.342;-1.290;2023-05-13T04:02:13;32;25;
28026;PMS5003;15344;52.342;-1.290;2023-05-13T04:04:39;23;20;
28026;PMS5003;15344;52.342;-1.290;2023-05-13T04:07:04;19;18;
28026;PMS5003;15344;52.342;-1.290;2023-05-13T04:09:29;33;25;
28026;PMS5003;15344;52.342;-1.290;2023-05-13T04:11:54;23;18;
28026;PMS5003;15344;52.342;-1.290;2023-05-13T04:14:19;26;22;
28026;PMS5003;15344;52.342;-1.290;2023-05-13T04:16:45;27;23;
28026;PMS5003;15344;52.342;-1.290;2023-05-13T04:19:10;24;23;
28026;PMS5003;15344;52.342;-1.290;2023-05-13T04:21:36;24;19;
28026;PMS5003;15344;52.342;-1.290;2023-05-13T04:24:02;26;20;
28026;PMS5003;15344;52.342;-1.290;2023-05-13T04:26:27;27;25;
28026;PMS5003;15344;52.342;-1.290;2023-05-13T04:28:53;28;23;
28026;PMS5003;15344;52.342;-1.290;2023-05-13T04:31:19;21;16;
28026;PMS5003;15344;52.342;-1.290;2023-05-13T04:33:45;22;21;
28026;PMS5003;15344;52.342;-1.290;2023-05-13T04:36:10;20;20;
28026;PMS5003;15344;52.342;-1.290;2023-05-13T04:38:36;35;26;
28026;PMS5003;15344;52.342;-1.290;2023-05-13T04:41:01;31;24;
28026;PMS5003;15344;52.342;-1.290;2023-05-13T04:43:27;26;25;
28026;PMS5003;15344;52.342;-1.290;2023-05-13T04:45:52;25;23;
28026;PMS5003;15344;52.342;-1.290;2023-05-13T04:48:18;24;24;
28026;PMS5003;15344;52.342;-1.290;2023-05-13T04:50:44;26;20;
28026;PMS5003;15344;52.342;-1.290;2023-05-13T04:53:09;24;22;
28026;PMS5003;15344;52.342;-1.290;2023-05-13T04:55:34;26;22;
28026;PMS5003;15344;52.342;-1.290;2023-05-13T04:58:00;23;20;
28026;PMS5003;15344;52.342;-1.290;2023-05-13T05:00:25;27;22;
28026;PMS5003;15344;52.342;-1.290;2023-05-13T05:02:50;26;20;
28026;PMS5003;15344;52.342;-1.290;2023-05-13T05:05:16;24;24;
28026;PMS5003;15344;52.342;-1.290;2023-05-13T05:07:41;26;20;
28026;PMS5003;15344;52.342;-1.290;2023-05-13T05:10:07;18;15;
28026;PMS5003;15344;52.342;-1.290;2023-05-13T05:12:32;15;15;
28026;PMS5003;15344;52.342;-1.290;2023-05-13T05:14:57;18;17;
28026;PMS5003;15344;52.342;-1.290;2023-05-13T05:17:23;19;13;
28026;PMS5003;15344;52.342;-1.290;2023-05-13T05:19:48;20;16;
28026;PMS5003;15344;52.342;-1.290;2023-05-13T05:22:13;15;13;
28026;PMS5003;15344;52.342;-1.290;2023-05-13T05:24:38;16;15;
28026;PMS5003;15344;52.342;-1.290;2023-05-13T05:27:04;14;13;
28026;PMS5003;15344;52.342;-1.290;2023-05-13T05:29:29;26;20;
28026;PMS5003;15344;52.342;-1.290;2023-05-13T05:31:54;21;18;
28026;PMS5003;15344;52.342;-1.290;2023-05-13T05:34:20;22;19;
28026;PMS5003;15344;52.342;-1.290;2023-05-13T05:36:45;23;21;
28026;PMS5003;15344;52.342;-1.290;2023-05-13T05:39:10;16;16;
28026;PMS5003;15344;52.342;-1.290;2023-05-13T05:41:35;19;16;
28026;PMS5003;15344;52.342;-1.290;2023-05-13T05:44:01;19;17;
28026;PMS5003;15344;52.342;-1.290;2023-05-13T05:46:27;21;20;
28026;PMS5003;15344;52.342;-1.290;2023-05-13T05:48:52;14;12;
28026;PMS5003;15344;52.342;-1.290;2023-05-13T05:51:17;21;15;
28026;PMS5003;15344;52.342;-1.290;2023-05-13T05:53:43;19;14;
28026;PMS5003;15344;52.342;-1.290;2023-05-13T05:56:09;26;18;
28026;PMS5003;15344;52.342;-1.290;2023-05-13T05:58:35;16;14;
28026;PMS5003;15344;52.342;-1.290;2023-05-13T06:01:00;14;14;
28026;PMS5003;15344;52.342;-1.290;2023-05-13T06:03:26;25;21;
28026;PMS5003;15344;52.342;-1.290;2023-05-13T06:05:51;18;15;
28026;PMS5003;15344;52.342;-1.290;2023-05-13T06:08:17;25;22;
28026;PMS5003;15344;52.342;-1.290;2023-05-13T06:10:43;33;25;
28026;PMS5003;15344;52.342;-1.290;2023-05-13T06:13:08;27;25;
28026;PMS5003;15344;52.342;-1.290;2023-05-13T06:15:34;27;24;
28026;PMS5003;15344;52.342;-1.290;2023-05-13T06:17:59;26;22;
28026;PMS5003;15344;52.342;-1.290;2023-05-13T06:20:25;25;22;
28026;PMS5003;15344;52.342;-1.290;2023-05-13T06:22:50;23;22;
28026;PMS5003;15344;52.342;-1.290;2023-05-13T06:25:16;27;22;
28026;PMS5003;15344;52.342;-1.290;2023-05-13T06:27:42;20;16;
28026;PMS5003;15344;52.342;-1.290;2023-05-13T06:30:07;20;19;
28026;PMS5003;15344;52.342;-1.290;2023-05-13T06:32:33;18;18;
28026;PMS5003;15344;52.342;-1.290;2023-05-13T06:34:58;23;18;
28026;PMS5003;15344;52.342;-1.290;2023-05-13T06:37:23;25;19;
28026;PMS5003;15344;52.342;-1.290;2023-05-13T06:39:49;23;19;
28026;PMS5003;15344;52.342;-1.290;2023-05-13T06:42:14;20;17;
28026;PMS5003;15344;52.342;-1.290;2023-05-13T06:44:39;17;14;
28026;PMS5003;15344;52.342;-1.290;2023-05-13T06:47:05;24;18;
28026;PMS5003;15344;52.342;-1.290;2023-05-13T06:49:31;23;20;
28026;PMS5003;15344;52.342;-1.290;2023-05-13T06:51:55;22;21;
28026;PMS5003;15344;52.342;-1.290;2023-05-13T06:54:21;20;18;
28026;PMS5003;15344;52.342;-1.290;2023-05-13T06:56:46;28;23;
28026;PMS5003;15344;52.342;-1.290;2023-05-13T06:59:11;26;20;
28026;PMS5003;15344;52.342;-1.290;2023-05-13T07:01:37;23;21;
28026;PMS5003;15344;52.342;-1.290;2023-05-13T07:04:03;24;22;
28026;PMS5003;15344;52.342;-1.290;2023-05-13T07:06:28;24;21;
28026;PMS5003;15344;52.342;-1.290;2023-05-13T07:08:53;27;25;
28026;PMS5003;15344;52.342;-1.290;2023-05-13T07:11:19;31;25;
28026;PMS5003;15344;52.342;-1.290;2023-05-13T07:13:45;31;23;
28026;PMS5003;15344;52.342;-1.290;2023-05-13T07:16:10;23;19;
28026;PMS5003;15344;52.342;-1.290;2023-05-13T07:18:36;33;26;
28026;PMS5003;15344;52.342;-1.290;2023-05-13T07:21:01;23;19;
28026;PMS5003;15344;52.342;-1.290;2023-05-13T07:23:27;27;23;
28026;PMS5003;15344;52.342;-1.290;2023-05-13T07:25:52;26;23;
28026;PMS5003;15344;52.342;-1.290;2023-05-13T07:28:18;22;20;
28026;PMS5003;15344;52.342;-1.290;2023-05-13T07:30:43;24;17;
28026;PMS5003;15344;52.342;-1.290;2023-05-13T07:33:08;22;20;
28026;PMS5003;15344;52.342;-1.290;2023-05-13T07:35:34;17;16;
28026;PMS5003;15344;52.342;-1.290;2023-05-13T07:38:00;21;20;
28026;PMS5003;15344;52.342;-1.290;2023-05-13T07:40:25;22;19;
28026;PMS5003;15344;52.342;-1.290;2023-05-13T07:42:51;26;21;
28026;PMS5003;15344;52.342;-1.290;2023-05-13T07:45:17;19;16;
28026;PMS5003;15344;52.342;-1.290;2023-05-13T07:47:42;27;23;
28026;PMS5003;15344;52.342;-1.290;2023-05-13T07:50:08;21;20;
28026;PMS5003;15344;52.342;-1.290;2023-05-13T07:52:34;22;17;
28026;PMS5003;15344;52.342;-1.290;2023-05-13T07:54:59;28;23;
28026;PMS5003;15344;52.342;-1.290;2023-05-13T07:57:24;22;19;
28026;PMS5003;15344;52.342;-1.290;2023-05-13T07:59:50;25;18;
28026;PMS5003;15344;52.342;-1.290;2023-05-13T08:02:16;22;16;
28026;PMS5003;15344;52.342;-1.290;2023-05-13T08:04:41;22;15;
28026;PMS5003;15344;52.342;-1.290;2023-05-13T08:07:08;23;17;
28026;PMS5003;15344;52.342;-1.290;2023-05-13T08:09:33;17;16;
28026;PMS5003;15344;52.342;-1.290;2023-05-13T08:11:58;24;20;
28026;PMS5003;15344;52.342;-1.290;2023-05-13T08:14:23;20;19;
28026;PMS5003;15344;52.342;-1.290;2023-05-13T08:16:49;20;17;
28026;PMS5003;15344;52.342;-1.290;2023-05-13T08:19:14;19;16;
28026;PMS5003;15344;52.342;-1.290;2023-05-13T08:21:40;24;17;
28026;PMS5003;15344;52.342;-1.290;2023-05-13T08:24:05;15;15;
28026;PMS5003;15344;52.342;-1.290;2023-05-13T08:26:30;25;22;
28026;PMS5003;15344;52.342;-1.290;2023-05-13T08:28:56;23;22;
28026;PMS5003;15344;52.342;-1.290;2023-05-13T08:31:21;18;16;
28026;PMS5003;15344;52.342;-1.290;2023-05-13T08:33:46;19;18;
28026;PMS5003;15344;52.342;-1.290;2023-05-13T08:36:12;19;17;
28026;PMS5003;15344;52.342;-1.290;2023-05-13T08:38:37;19;15;
28026;PMS5003;15344;52.342;-1.290;2023-05-13T08:41:03;12;11;
28026;PMS5003;15344;52.342;-1.290;2023-05-13T08:43:28;19;17;
28026;PMS5003;15344;52.342;-1.290;2023-05-13T08:45:54;22;18;
28026;PMS5003;15344;52.342;-1.290;2023-05-13T08:48:19;20;13;
28026;PMS5003;15344;52.342;-1.290;2023-05-13T08:50:45;16;14;
28026;PMS5003;15344;52.342;-1.290;2023-05-13T08:53:11;9;9;
28026;PMS5003;15344;52.342;-1.290;2023-05-13T08:55:35;13;12;
28026;PMS5003;15344;52.342;-1.290;2023-05-13T08:58:00;15;12;
28026;PMS5003;15344;52.342;-1.290;2023-05-13T09:00:27;12;11;
28026;PMS5003;15344;52.342;-1.290;2023-05-13T09:02:52;12;11;
28026;PMS5003;15344;52.342;-1.290;2023-05-13T09:05:18;17;17;
28026;PMS5003;15344;52.342;-1.290;2023-05-13T09:07:43;13;13;
28026;PMS5003;15344;52.342;-1.290;2023-05-13T09:10:09;14;14;
28026;PMS5003;15344;52.342;-1.290;2023-05-13T09:14:59;14;13;
28026;PMS5003;15344;52.342;-1.290;2023-05-13T09:17:24;12;12;
28026;PMS5003;15344;52.342;-1.290;2023-05-13T09:19:50;16;13;
28026;PMS5003;15344;52.342;-1.290;2023-05-13T09:22:16;14;12;
28026;PMS5003;15344;52.342;-1.290;2023-05-13T09:24:41;15;12;
28026;PMS5003;15344;52.342;-1.290;2023-05-13T09:27:06;13;13;
28026;PMS5003;15344;52.342;-1.290;2023-05-13T09:29:31;12;12;
28026;PMS5003;15344;52.342;-1.290;2023-05-13T09:31:58;14;13;
28026;PMS5003;15344;52.342;-1.290;2023-05-13T09:34:24;18;13;
28026;PMS5003;15344;52.342;-1.290;2023-05-13T09:39:14;14;12;
28026;PMS5003;15344;52.342;-1.290;2023-05-13T09:41:39;17;13;
28026;PMS5003;15344;52.342;-1.290;2023-05-13T09:44:04;17;15;
28026;PMS5003;15344;52.342;-1.290;2023-05-13T09:46:30;15;14;
28026;PMS5003;15344;52.342;-1.290;2023-05-13T09:48:55;19;14;
28026;PMS5003;15344;52.342;-1.290;2023-05-13T09:51:24;14;14;
28026;PMS5003;15344;52.342;-1.290;2023-05-13T09:53:46;16;12;
28026;PMS5003;15344;52.342;-1.290;2023-05-13T09:56:12;16;13;
28026;PMS5003;15344;52.342;-1.290;2023-05-13T09:58:38;15;14;
28026;PMS5003;15344;52.342;-1.290;2023-05-13T10:01:04;13;12;
28026;PMS5003;15344;52.342;-1.290;2023-05-13T10:03:29;19;18;
28026;PMS5003;15344;52.342;-1.290;2023-05-13T10:05:54;18;13;
28026;PMS5003;15344;52.342;-1.290;2023-05-13T10:08:19;13;13;
28026;PMS5003;15344;52.342;-1.290;2023-05-13T10:10:45;15;14;
28026;PMS5003;15344;52.342;-1.290;2023-05-13T10:13:12;17;14;
28026;PMS5003;15344;52.342;-1.290;2023-05-13T10:15:37;13;13;
28026;PMS5003;15344;52.342;-1.290;2023-05-13T10:18:02;13;12;
28026;PMS5003;15344;52.342;-1.290;2023-05-13T10:20:28;19;14;
28026;PMS5003;15344;52.342;-1.290;2023-05-13T10:22:54;19;17;
28026;PMS5003;15344;52.342;-1.290;2023-05-13T10:25:19;16;16;
28026;PMS5003;15344;52.342;-1.290;2023-05-13T10:27:44;21;15;
28026;PMS5003;15344;52.342;-1.290;2023-05-13T10:30:11;20;18;
28026;PMS5003;15344;52.342;-1.290;2023-05-13T10:32:36;17;14;
28026;PMS5003;15344;52.342;-1.290;2023-05-13T10:35:02;15;15;
28026;PMS5003;15344;52.342;-1.290;2023-05-13T10:37:32;14;14;
28026;PMS5003;15344;52.342;-1.290;2023-05-13T10:42:23;16;14;
28026;PMS5003;15344;52.342;-1.290;2023-05-13T10:44:43;22;18;
28026;PMS5003;15344;52.342;-1.290;2023-05-13T10:47:08;19;16;
28026;PMS5003;15344;52.342;-1.290;2023-05-13T10:49:33;15;14;
28026;PMS5003;15344;52.342;-1.290;2023-05-13T10:52:02;16;13;
28026;PMS5003;15344;52.342;-1.290;2023-05-13T10:54:24;20;17;
28026;PMS5003;15344;52.342;-1.290;2023-05-13T10:59:15;23;19;
28026;PMS5003;15344;52.342;-1.290;2023-05-13T11:01:40;20;17;
28026;PMS5003;15344;52.342;-1.290;2023-05-13T11:04:06;15;14;
28026;PMS5003;15344;52.342;-1.290;2023-05-13T11:06:32;18;16;
28026;PMS5003;15344;52.342;-1.290;2023-05-13T11:08:56;19;15;
28026;PMS5003;15344;52.342;-1.290;2023-05-13T11:11:23;13;13;
28026;PMS5003;15344;52.342;-1.290;2023-05-13T11:13:48;19;17;
28026;PMS5003;15344;52.342;-1.290;2023-05-13T11:16:14;18;15;
28026;PMS5003;15344;52.342;-1.290;2023-05-13T11:18:39;16;15;
28026;PMS5003;15344;52.342;-1.290;2023-05-13T11:21:05;16;15;
28026;PMS5003;15344;52.342;-1.290;2023-05-13T11:23:30;16;12;
28026;PMS5003;15344;52.342;-1.290;2023-05-13T11:30:52;17;17;
28026;PMS5003;15344;52.342;-1.290;2023-05-13T11:33:12;18;15;
28026;PMS5003;15344;52.342;-1.290;2023-05-13T11:35:37;16;16;
28026;PMS5003;15344;52.342;-1.290;2023-05-13T11:38:03;18;16;
28026;PMS5003;15344;52.342;-1.290;2023-05-13T11:40:29;20;17;
28026;PMS5003;15344;52.342;-1.290;2023-05-13T11:42:54;18;17;
28026;PMS5003;15344;52.342;-1.290;2023-05-13T11:45:21;25;20;
28026;PMS5003;15344;52.342;-1.290;2023-05-13T11:47:46;17;16;
28026;PMS5003;15344;52.342;-1.290;2023-05-13T11:52:36;21;16;
28026;PMS5003;15344;52.342;-1.290;2023-05-13T11:55:02;18;16;
28026;PMS5003;15344;52.342;-1.290;2023-05-13T11:57:28;16;16;
28026;PMS5003;15344;52.342;-1.290;2023-05-13T11:59:54;22;20;
28026;PMS5003;15344;52.342;-1.290;2023-05-13T12:02:19;24;19;
28026;PMS5003;15344;52.342;-1.290;2023-05-13T12:04:44;20;17;
28026;PMS5003;15344;52.342;-1.290;2023-05-13T12:07:10;21;19;
28026;PMS5003;15344;52.342;-1.290;2023-05-13T12:09:35;24;21;
28026;PMS5003;15344;52.342;-1.290;2023-05-13T12:12:00;20;18;
28026;PMS5003;15344;52.342;-1.290;2023-05-13T12:14:25;20;20;
28026;PMS5003;15344;52.342;-1.290;2023-05-13T12:16:51;27;21;
28026;PMS5003;15344;52.342;-1.290;2023-05-13T12:19:18;22;19;
28026;PMS5003;15344;52.342;-1.290;2023-05-13T12:21:43;23;19;
28026;PMS5003;15344;52.342;-1.290;2023-05-13T12:26:33;26;22;
28026;PMS5003;15344;52.342;-1.290;2023-05-13T12:28:59;22;20;
28026;PMS5003;15344;52.342;-1.290;2023-05-13T12:31:24;24;22;
28026;PMS5003;15344;52.342;-1.290;2023-05-13T12:33:50;18;18;
28026;PMS5003;15344;52.342;-1.290;2023-05-13T12:36:16;23;20;
28026;PMS5003;15344;52.342;-1.290;2023-05-13T12:41:10;21;18;
28026;PMS5003;15344;52.342;-1.290;2023-05-13T12:43:32;22;21;
28026;PMS5003;15344;52.342;-1.290;2023-05-13T12:45:58;19;18;
28026;PMS5003;15344;52.342;-1.290;2023-05-13T12:48:24;19;16;
28026;PMS5003;15344;52.342;-1.290;2023-05-13T12:50:50;20;19;
28026;PMS5003;15344;52.342;-1.290;2023-05-13T12:53:15;18;16;
28026;PMS5003;15344;52.342;-1.290;2023-05-13T12:55:40;18;17;
28026;PMS5003;15344;52.342;-1.290;2023-05-13T12:58:06;20;17;
28026;PMS5003;15344;52.342;-1.290;2023-05-13T13:00:31;22;21;
28026;PMS5003;15344;52.342;-1.290;2023-05-13T13:02:57;15;14;
28026;PMS5003;15344;52.342;-1.290;2023-05-13T13:05:23;17;16;
28026;PMS5003;15344;52.342;-1.290;2023-05-13T13:07:48;22;22;
28026;PMS5003;15344;52.342;-1.290;2023-05-13T13:10:13;22;21;
28026;PMS5003;15344;52.342;-1.290;2023-05-13T13:12:38;22;19;
28026;PMS5003;15344;52.342;-1.290;2023-05-13T13:15:03;27;22;
28026;PMS5003;15344;52.342;-1.290;2023-05-13T13:17:29;19;18;
28026;PMS5003;15344;52.342;-1.290;2023-05-13T13:19:54;19;17;
28026;PMS5003;15344;52.342;-1.290;2023-05-13T13:22:19;30;26;
28026;PMS5003;15344;52.342;-1.290;2023-05-13T13:24:45;23;19;
28026;PMS5003;15344;52.342;-1.290;2023-05-13T13:27:10;25;22;
28026;PMS5003;15344;52.342;-1.290;2023-05-13T13:29:36;18;17;
28026;PMS5003;15344;52.342;-1.290;2023-05-13T13:32:01;21;21;
28026;PMS5003;15344;52.342;-1.290;2023-05-13T13:34:26;19;19;
28026;PMS5003;15344;52.342;-1.290;2023-05-13T13:36:52;23;20;
28026;PMS5003;15344;52.342;-1.290;2023-05-13T13:39:17;26;23;
28026;PMS5003;15344;52.342;-1.290;2023-05-13T13:41:43;26;23;
28026;PMS5003;15344;52.342;-1.290;2023-05-13T13:44:08;25;24;
28026;PMS5003;15344;52.342;-1.290;2023-05-13T13:46:34;30;25;
28026;PMS5003;15344;52.342;-1.290;2023-05-13T13:48:58;21;20;
28026;PMS5003;15344;52.342;-1.290;2023-05-13T13:51:24;25;24;
28026;PMS5003;15344;52.342;-1.290;2023-05-13T13:53:49;23;21;
28026;PMS5003;15344;52.342;-1.290;2023-05-13T13:56:14;32;26;
28026;PMS5003;15344;52.342;-1.290;2023-05-13T13:58:40;23;21;
28026;PMS5003;15344;52.342;-1.290;2023-05-13T14:01:06;25;23;
28026;PMS5003;15344;52.342;-1.290;2023-05-13T14:03:31;22;22;
28026;PMS5003;15344;52.342;-1.290;2023-05-13T14:05:57;26;18;
28026;PMS5003;15344;52.342;-1.290;2023-05-13T14:08:22;23;20;
28026;PMS5003;15344;52.342;-1.290;2023-05-13T14:10:48;28;24;
28026;PMS5003;15344;52.342;-1.290;2023-05-13T14:13:14;30;25;
28026;PMS5003;15344;52.342;-1.290;2023-05-13T14:15:39;23;21;
28026;PMS5003;15344;52.342;-1.290;2023-05-13T14:18:05;23;21;
28026;PMS5003;15344;52.342;-1.290;2023-05-13T14:20:30;27;23;
28026;PMS5003;15344;52.342;-1.290;2023-05-13T14:22:55;20;20;
28026;PMS5003;15344;52.342;-1.290;2023-05-13T14:25:20;29;25;
28026;PMS5003;15344;52.342;-1.290;2023-05-13T14:27:46;28;24;
28026;PMS5003;15344;52.342;-1.290;2023-05-13T14:30:12;21;19;
28026;PMS5003;15344;52.342;-1.290;2023-05-13T14:32:37;29;23;
28026;PMS5003;15344;52.342;-1.290;2023-05-13T14:35:03;24;19;
28026;PMS5003;15344;52.342;-1.290;2023-05-13T14:37:28;21;19;
28026;PMS5003;15344;52.342;-1.290;2023-05-13T14:39:54;26;24;
28026;PMS5003;15344;52.342;-1.290;2023-05-13T14:42:19;25;20;
28026;PMS5003;15344;52.342;-1.290;2023-05-13T14:44:44;25;22;
28026;PMS5003;15344;52.342;-1.290;2023-05-13T14:47:10;19;19;
28026;PMS5003;15344;52.342;-1.290;2023-05-13T14:49:35;23;21;
28026;PMS5003;15344;52.342;-1.290;2023-05-13T14:52:01;22;22;
28026;PMS5003;15344;52.342;-1.290;2023-05-13T14:54:26;21;20;
28026;PMS5003;15344;52.342;-1.290;2023-05-13T14:56:52;24;24;
28026;PMS5003;15344;52.342;-1.290;2023-05-13T14:59:17;22;19;
28026;PMS5003;15344;52.342;-1.290;2023-05-13T15:01:42;26;24;
28026;PMS5003;15344;52.342;-1.290;2023-05-13T15:04:08;21;21;
28026;PMS5003;15344;52.342;-1.290;2023-05-13T15:06:35;22;22;
28026;PMS5003;15344;52.342;-1.290;2023-05-13T15:08:59;21;19;
28026;PMS5003;15344;52.342;-1.290;2023-05-13T15:11:25;25;21;
28026;PMS5003;15344;52.342;-1.290;2023-05-13T15:13:49;19;19;
28026;PMS5003;15344;52.342;-1.290;2023-05-13T15:16:15;23;20;
28026;PMS5003;15344;52.342;-1.290;2023-05-13T15:18:40;25;20;
28026;PMS5003;15344;52.342;-1.290;2023-05-13T15:21:06;24;23;
28026;PMS5003;15344;52.342;-1.290;2023-05-13T15:23:31;25;22;
28026;PMS5003;15344;52.342;-1.290;2023-05-13T15:25:56;18;17;
28026;PMS5003;15344;52.342;-1.290;2023-05-13T15:28:21;28;23;
28026;PMS5003;15344;52.342;-1.290;2023-05-13T15:30:47;16;16;
28026;PMS5003;15344;52.342;-1.290;2023-05-13T15:33:12;19;18;
28026;PMS5003;15344;52.342;-1.290;2023-05-13T15:35:38;21;18;
28026;PMS5003;15344;52.342;-1.290;2023-05-13T15:38:04;22;18;
28026;PMS5003;15344;52.342;-1.290;2023-05-13T15:40:29;22;18;
28026;PMS5003;15344;52.342;-1.290;2023-05-13T15:42:54;19;17;
28026;PMS5003;15344;52.342;-1.290;2023-05-13T15:45:20;19;19;
28026;PMS5003;15344;52.342;-1.290;2023-05-13T15:47:46;17;17;
28026;PMS5003;15344;52.342;-1.290;2023-05-13T15:50:11;24;19;
28026;PMS5003;15344;52.342;-1.290;2023-05-13T15:52:37;21;20;
28026;PMS5003;15344;52.342;-1.290;2023-05-13T15:55:03;16;15;
28026;PMS5003;15344;52.342;-1.290;2023-05-13T15:57:28;16;16;
28026;PMS5003;15344;52.342;-1.290;2023-05-13T15:59:54;18;18;
28026;PMS5003;15344;52.342;-1.290;2023-05-13T16:02:19;17;17;
28026;PMS5003;15344;52.342;-1.290;2023-05-13T16:04:44;18;18;
28026;PMS5003;15344;52.342;-1.290;2023-05-13T16:07:09;26;21;
28026;PMS5003;15344;52.342;-1.290;2023-05-13T16:09:35;19;18;
28026;PMS5003;15344;52.342;-1.290;2023-05-13T16:12:00;19;17;